SSI weather

St Simons Island Airport
Brunswick, Georgia, United States

Public forecast

Using degrees Fahrenheit for public forecast. Weather courtesy of forecast.io.

METAR (pilot weather report)

Retrieved 2019/07/23 13:53 UTC (40 minutes ago):

KSSI 231353Z AUTO 28008KT 10SM CLR 30/22 A2994 RMK AO2 SLP139 T03000217 TSNO

TAF (pilot weather forecast)

Retrieved 2019/07/23 12:33 UTC (2 hours ago):

TAF KSSI 231131Z 2312/2412 21006KT P6SM SCT035 BKN250 FM231800 17010KT P6SM VCTS BKN040CB BKN250 FM240300 24007KT P6SM VCSH SCT025 BKN050 OVC080 FM240800 20002KT P6SM VCSH BKN020 BKN040 OVC060